Time;durP1;ratioP1;P1;durP2;ratioP2;P2;SDS_P1;SDS_P2;PMS_P1;PMS_P2;Temp;Humidity;BMP_temperature;BMP_pressure;BME280_temperature;BME280_humidity;BME280_pressure;Samples;Min_cycle;Max_cycle;Signal;HPM_P1;HPM_P2
2023/06/24 00:02:11;;;;;;;120.50;115.07;;;;;;;28.18;38.31;102326.91;5091159;28;20391;-72
2023/06/24 00:04:37;;;;;;;121.90;116.30;;;;;;;28.15;37.94;102326.72;5092694;28;20031;-74
2023/06/24 00:07:02;;;;;;;127.45;121.78;;;;;;;28.13;38.05;102329.03;5086755;28;20042;-73
2023/06/24 00:09:28;;;;;;;125.20;119.50;;;;;;;28.10;37.72;102324.09;5090765;28;20480;-72
2023/06/24 00:11:54;;;;;;;123.10;117.38;;;;;;;28.07;38.03;102331.13;5092762;28;20042;-72
2023/06/24 00:14:21;;;;;;;119.28;113.88;;;;;;;28.03;38.16;102333.75;5092859;28;20031;-72
2023/06/24 00:16:51;;;;;;;124.90;118.80;;;;;;;28.01;38.21;102329.66;5080040;28;20036;-76
2023/06/24 00:19:22;;;;;;;118.32;113.03;;;;;;;27.99;38.10;102334.72;5090038;28;20109;-73
2023/06/24 00:21:50;;;;;;;122.68;117.05;;;;;;;27.96;38.12;102327.03;5090829;28;20490;-73
2023/06/24 00:24:17;;;;;;;119.40;113.90;;;;;;;27.93;38.31;102325.72;5091465;28;20028;-72
2023/06/24 00:26:42;;;;;;;118.00;112.60;;;;;;;27.90;37.98;102322.78;5092716;28;20052;-86
2023/06/24 00:29:08;;;;;;;123.22;117.82;;;;;;;27.87;38.60;102329.81;5093379;28;20121;-73
2023/06/24 00:31:33;;;;;;;121.85;116.35;;;;;;;27.86;38.27;102327.34;5077943;28;20135;-73
2023/06/24 00:33:59;;;;;;;121.32;115.63;;;;;;;27.83;38.58;102343.50;5084023;28;20032;-72
2023/06/24 00:36:24;;;;;;;126.72;121.03;;;;;;;27.79;38.66;102334.13;5092613;28;20039;-72
2023/06/24 00:38:49;;;;;;;117.50;112.20;;;;;;;27.78;38.49;102331.69;5070693;28;20086;-72
2023/06/24 00:41:18;;;;;;;118.93;113.50;;;;;;;27.75;38.55;102326.78;5091778;28;20123;-72
2023/06/24 00:43:44;;;;;;;119.25;113.90;;;;;;;27.73;38.35;102342.94;5092363;28;20074;-86
2023/06/24 00:46:10;;;;;;;119.97;114.57;;;;;;;27.69;38.79;102337.19;5093109;28;20038;-72
2023/06/24 00:48:36;;;;;;;119.57;114.20;;;;;;;27.67;38.36;102338.66;5092641;28;20024;-72
2023/06/24 00:51:01;;;;;;;117.95;112.60;;;;;;;27.63;38.62;102332.94;5091931;28;20548;-72
2023/06/24 00:53:27;;;;;;;118.68;113.35;;;;;;;27.61;38.67;102343.53;5092875;28;20379;-72
2023/06/24 00:55:55;;;;;;;118.95;113.50;;;;;;;27.59;38.67;102345.81;5091212;28;20467;-76
2023/06/24 00:58:21;;;;;;;;;;;;;;;27.55;38.64;102348.41;5075897;28;20032;-72
2023/06/24 01:00:48;;;;;;;115.30;110.07;;;;;;;27.52;38.43;102345.47;5087968;28;19924;-73
2023/06/24 01:03:14;;;;;;;122.03;116.55;;;;;;;27.49;38.84;102352.47;5083042;28;20047;-72
2023/06/24 01:05:41;;;;;;;115.60;110.28;;;;;;;27.46;38.49;102353.09;5087319;28;20032;-74
2023/06/24 01:08:06;;;;;;;119.70;113.82;;;;;;;27.43;38.54;102339.88;5074118;28;20037;-74
2023/06/24 01:10:32;;;;;;;116.45;111.30;;;;;;;27.40;39.00;102337.75;5092664;28;20032;-73
2023/06/24 01:12:57;;;;;;;118.60;113.20;;;;;;;27.37;38.73;102336.41;5090250;28;20032;-73
2023/06/24 01:15:24;;;;;;;115.07;109.78;;;;;;;27.35;39.14;102335.91;5092240;28;20077;-73
2023/06/24 01:17:56;;;;;;;117.05;111.75;;;;;;;27.33;38.87;102334.59;5091443;28;20107;-73
2023/06/24 01:20:49;;;;;;;120.00;114.50;;;;;;;27.30;38.94;102338.81;5088789;28;20036;-72
2023/06/24 01:23:29;;;;;;;115.80;110.38;;;;;;;27.26;38.96;102321.16;5085474;28;20035;-73
2023/06/24 01:25:57;;;;;;;117.22;111.82;;;;;;;27.23;39.25;102327.34;5083902;28;20056;-73
2023/06/24 01:28:56;;;;;;;117.40;112.13;;;;;;;27.21;39.11;102331.59;5080959;28;20043;-73
2023/06/24 01:31:32;;;;;;;115.68;110.32;;;;;;;27.17;38.83;102323.06;5079244;28;20037;-73
2023/06/24 01:34:23;;;;;;;113.45;108.15;;;;;;;27.15;39.16;102319.78;5091087;28;20051;-73
2023/06/24 01:37:00;;;;;;;111.35;106.28;;;;;;;27.10;39.02;102317.97;5092094;28;20039;-86
2023/06/24 01:39:31;;;;;;;113.55;108.40;;;;;;;27.08;39.33;102313.88;5090310;28;20072;-75
2023/06/24 01:42:07;;;;;;;118.82;113.38;;;;;;;27.05;39.48;102318.09;5083009;28;20114;-73
2023/06/24 01:44:34;;;;;;;115.57;110.35;;;;;;;27.03;39.46;102320.34;5089955;28;20364;-73
2023/06/24 01:47:03;;;;;;;115.67;110.40;;;;;;;27.00;39.62;102311.88;5074547;28;20043;-73
2023/06/24 01:49:30;;;;;;;112.00;106.70;;;;;;;26.97;39.09;102310.53;5091483;28;20120;-73
2023/06/24 01:51:58;;;;;;;117.38;111.47;;;;;;;26.96;39.45;102314.44;5086572;28;20055;-73
2023/06/24 01:54:26;;;;;;;116.18;110.90;;;;;;;26.93;39.39;102312.31;5076059;28;20036;-74
2023/06/24 01:56:54;;;;;;;114.93;109.73;;;;;;;26.91;39.57;102306.25;5090215;28;20032;-74
2023/06/24 01:59:20;;;;;;;;;;;;;;;26.88;39.29;102312.44;5091973;28;20028;-74
2023/06/24 02:01:46;;;;;;;111.15;105.95;;;;;;;26.84;39.30;102311.41;5091846;28;19927;-74
2023/06/24 02:04:14;;;;;;;114.15;108.97;;;;;;;26.81;39.37;102310.09;5077478;28;20040;-73
2023/06/24 02:06:41;;;;;;;114.30;109.00;;;;;;;26.79;39.44;102301.28;5090403;28;20114;-74
2023/06/24 02:09:07;;;;;;;115.78;110.28;;;;;;;26.76;39.34;102299.97;5078730;28;20170;-74
2023/06/24 02:11:34;;;;;;;111.35;106.00;;;;;;;26.74;39.23;102298.66;5090265;28;20060;-74
2023/06/24 02:14:02;;;;;;;118.93;113.18;;;;;;;26.71;39.68;102293.72;5090617;28;20098;-73
2023/06/24 02:16:29;;;;;;;116.60;111.28;;;;;;;26.68;39.88;102295.16;5090432;28;20039;-73
2023/06/24 02:18:56;;;;;;;115.47;109.95;;;;;;;26.67;39.65;102303.81;5088098;28;20032;-74
2023/06/24 02:21:24;;;;;;;116.75;111.18;;;;;;;26.64;39.54;102304.44;5091041;28;20036;-74
2023/06/24 02:23:51;;;;;;;112.25;106.72;;;;;;;26.61;39.77;102300.34;5091803;28;20028;-74
2023/06/24 02:26:17;;;;;;;112.18;106.68;;;;;;;26.60;39.67;102309.78;5090573;28;20261;-74
2023/06/24 02:28:45;;;;;;;114.22;108.90;;;;;;;26.56;39.96;102300.47;5071959;28;20449;-73
2023/06/24 02:31:12;;;;;;;110.38;105.10;;;;;;;26.53;39.33;102292.75;5091070;28;20038;-73
2023/06/24 02:33:38;;;;;;;114.45;108.93;;;;;;;26.52;39.75;102293.88;5094362;28;20034;-73
2023/06/24 02:36:04;;;;;;;114.95;109.65;;;;;;;26.49;39.89;102306.41;5093435;28;20122;-73
2023/06/24 02:38:29;;;;;;;113.80;108.30;;;;;;;26.46;39.43;102300.66;5095586;28;20036;-74
2023/06/24 02:40:56;;;;;;;112.05;106.93;;;;;;;26.44;39.98;102300.19;5093921;28;20120;-74
2023/06/24 02:43:21;;;;;;;113.78;108.32;;;;;;;26.41;39.85;102298.84;5089229;28;20036;-73
2023/06/24 02:45:48;;;;;;;109.47;104.25;;;;;;;26.38;39.51;102296.69;5093297;28;20032;-73
2023/06/24 02:48:17;;;;;;;110.57;105.38;;;;;;;26.36;39.89;102298.13;5077188;28;20062;-73
2023/06/24 02:50:44;;;;;;;;;;;;;;;26.33;39.76;102294.88;5094036;28;20056;-73
2023/06/24 02:53:11;;;;;;;107.82;102.90;;;;;;;26.30;39.51;102302.97;5079612;28;19916;-72
2023/06/24 02:55:39;;;;;;;110.35;105.22;;;;;;;26.27;39.96;102309.16;5075581;28;20120;-72
2023/06/24 02:58:07;;;;;;;106.80;101.80;;;;;;;26.24;39.65;102309.78;5074751;28;20033;-73
2023/06/24 03:00:34;;;;;;;109.53;103.93;;;;;;;26.21;39.67;102311.22;5095378;28;20036;-74
2023/06/24 03:03:02;;;;;;;109.95;104.75;;;;;;;26.19;39.91;102307.94;5091605;28;20021;-74
2023/06/24 03:05:28;;;;;;;110.00;104.50;;;;;;;26.16;39.87;102307.72;5089974;28;20032;-73
2023/06/24 03:07:54;;;;;;;106.20;101.07;;;;;;;26.13;39.52;102306.38;5094929;28;20594;-72
2023/06/24 03:10:23;;;;;;;108.72;103.68;;;;;;;26.11;39.87;102315.03;5093119;28;20036;-74
2023/06/24 03:12:48;;;;;;;110.50;105.13;;;;;;;26.07;39.61;102311.22;5076592;28;20129;-73
2023/06/24 03:15:14;;;;;;;106.75;101.63;;;;;;;26.05;39.57;102315.44;5094102;28;20031;-73
2023/06/24 03:17:39;;;;;;;109.68;104.32;;;;;;;26.03;39.80;102323.22;5090762;28;20040;-73
2023/06/24 03:20:06;;;;;;;112.68;107.43;;;;;;;26.01;39.34;102314.44;5093015;28;20054;-73
2023/06/24 03:22:31;;;;;;;107.43;102.30;;;;;;;25.99;39.65;102313.91;5083889;28;20079;-74
2023/06/24 03:24:57;;;;;;;107.68;102.25;;;;;;;25.96;39.32;102317.31;5090545;28;20475;-74
2023/06/24 03:27:22;;;;;;;107.20;102.15;;;;;;;25.93;39.45;102313.22;5085320;28;20114;-73
2023/06/24 03:29:47;;;;;;;109.10;103.95;;;;;;;25.89;39.61;102315.75;5092341;28;20085;-73
2023/06/24 03:32:13;;;;;;;105.30;100.22;;;;;;;25.87;39.30;102309.72;5093723;28;20092;-73
2023/06/24 03:34:38;;;;;;;104.70;99.65;;;;;;;25.85;39.40;102311.16;5084900;28;20503;-74
2023/06/24 03:37:04;;;;;;;107.50;102.00;;;;;;;25.83;39.33;102305.91;5090681;28;20032;-77
2023/06/24 03:39:29;;;;;;;108.68;103.53;;;;;;;25.79;39.40;102310.41;5091827;28;20047;-73
2023/06/24 03:41:55;;;;;;;109.25;103.93;;;;;;;25.76;39.79;102308.25;5083194;28;20495;-73
2023/06/24 03:44:20;;;;;;;105.75;100.82;;;;;;;25.73;39.65;102311.66;5090620;28;20032;-73
2023/06/24 03:46:46;;;;;;;105.97;100.88;;;;;;;25.71;39.43;102313.91;5082944;28;20036;-76
2023/06/24 03:49:11;;;;;;;107.63;102.35;;;;;;;25.68;39.47;102307.03;5093648;28;20036;-72
2023/06/24 03:51:36;;;;;;;105.00;100.10;;;;;;;25.66;39.68;102311.25;5091827;28;20040;-72
2023/06/24 03:54:02;;;;;;;103.50;98.75;;;;;;;25.63;39.43;102312.69;5091988;28;20073;-74
2023/06/24 03:56:27;;;;;;;106.07;100.47;;;;;;;25.61;39.29;102311.34;5092226;28;20024;-74
2023/06/24 03:58:53;;;;;;;104.20;99.28;;;;;;;25.59;39.50;102310.81;5083897;28;20130;-73
2023/06/24 04:01:19;;;;;;;105.55;99.97;;;;;;;25.57;39.83;102316.66;5078966;28;20410;-78
2023/06/24 04:03:45;;;;;;;105.32;100.28;;;;;;;25.54;39.43;102313.69;5078577;28;20037;-73
2023/06/24 04:06:10;;;;;;;103.38;98.28;;;;;;;25.51;39.31;102314.31;5089905;28;20043;-73
2023/06/24 04:08:39;;;;;;;107.75;102.30;;;;;;;25.48;39.38;102316.56;5093390;28;20036;-72
2023/06/24 04:11:06;;;;;;;105.80;100.63;;;;;;;25.45;39.76;102317.16;5093095;28;20502;-73
2023/06/24 04:13:34;;;;;;;103.50;98.30;;;;;;;25.42;39.59;102314.19;5093669;28;20036;-72
2023/06/24 04:16:00;;;;;;;105.40;100.00;;;;;;;25.40;39.47;102319.19;5088647;28;20124;-73
2023/06/24 04:18:26;;;;;;;103.25;98.40;;;;;;;25.36;39.41;102321.75;5089118;28;20150;-73
2023/06/24 04:20:51;;;;;;;105.05;99.95;;;;;;;25.35;39.63;102322.06;5091867;28;20395;-72
2023/06/24 04:23:17;;;;;;;103.38;98.07;;;;;;;25.32;39.80;102323.47;5091359;28;20025;-73
2023/06/24 04:25:42;;;;;;;105.35;100.22;;;;;;;25.29;39.79;102321.34;5092840;28;20189;-74
2023/06/24 04:28:08;;;;;;;106.55;101.53;;;;;;;25.28;39.70;102324.41;5093782;28;20098;-74
2023/06/24 04:30:38;;;;;;;105.05;100.00;;;;;;;25.24;39.62;102313.94;5092234;28;20032;-74
2023/06/24 04:33:04;;;;;;;105.93;100.53;;;;;;;25.23;39.54;102317.03;5092667;28;20032;-73
2023/06/24 04:35:30;;;;;;;106.75;101.63;;;;;;;25.20;39.67;102315.69;5075673;28;20036;-73
2023/06/24 04:37:56;;;;;;;103.93;98.88;;;;;;;25.18;39.59;102320.72;5072036;28;20121;-73
2023/06/24 04:40:21;;;;;;;104.53;99.45;;;;;;;25.16;39.80;102325.72;5072904;28;20028;-74
2023/06/24 04:42:47;;;;;;;103.38;98.30;;;;;;;25.13;39.88;102319.94;5085821;28;20483;-73
2023/06/24 04:45:12;;;;;;;104.47;99.30;;;;;;;25.10;39.48;102323.28;5073365;28;20032;-74
2023/06/24 04:47:38;;;;;;;101.20;96.00;;;;;;;25.09;39.79;102332.72;5073347;28;20040;-74
2023/06/24 04:50:04;;;;;;;103.90;98.65;;;;;;;25.05;40.12;102322.28;5079106;28;20353;-74
2023/06/24 04:52:29;;;;;;;103.65;98.45;;;;;;;25.04;39.53;102314.28;5091322;28;20058;-74
2023/06/24 04:54:55;;;;;;;103.00;97.22;;;;;;;25.02;40.14;102316.53;5083389;28;20543;-74
2023/06/24 04:57:26;;;;;;;104.97;99.53;;;;;;;25.00;39.90;102322.38;5091706;28;20028;-74
2023/06/24 04:59:52;;;;;;;100.57;95.53;;;;;;;24.98;40.21;102326.56;5083583;28;20102;-74
2023/06/24 05:02:17;;;;;;;105.25;99.95;;;;;;;24.95;40.15;102327.97;5086517;28;20116;-73
2023/06/24 05:04:42;;;;;;;101.30;95.97;;;;;;;24.94;40.28;102331.84;5075733;28;20463;-73
2023/06/24 05:07:08;;;;;;;103.22;98.25;;;;;;;24.92;40.02;102325.00;5092540;28;20031;-74
2023/06/24 05:09:37;;;;;;;100.15;95.13;;;;;;;24.90;40.32;102330.84;5093029;28;20119;-73
2023/06/24 05:12:03;;;;;;;100.57;95.50;;;;;;;24.89;40.28;102325.59;5076995;28;20029;-73
2023/06/24 05:14:28;;;;;;;104.63;99.18;;;;;;;24.87;40.03;102325.06;5073823;28;20331;-73
2023/06/24 05:16:54;;;;;;;101.93;96.53;;;;;;;24.85;39.78;102328.16;5081384;28;20032;-73
2023/06/24 05:19:19;;;;;;;102.22;97.18;;;;;;;24.83;40.70;102328.44;5073062;28;20052;-74
2023/06/24 05:21:45;;;;;;;101.05;95.88;;;;;;;24.83;40.11;102330.41;5086741;28;20036;-74
2023/06/24 05:24:10;;;;;;;99.45;94.45;;;;;;;24.82;40.24;102324.06;5092152;28;20028;-85
2023/06/24 05:26:35;;;;;;;99.57;94.53;;;;;;;24.83;40.15;102324.88;5078585;28;20028;-72
2023/06/24 05:29:01;;;;;;;99.55;94.72;;;;;;;24.84;39.93;102326.50;5093043;28;20051;-74
2023/06/24 05:31:26;;;;;;;101.53;96.03;;;;;;;24.83;39.85;102324.88;5084958;28;20120;-77
2023/06/24 05:33:52;;;;;;;101.95;96.95;;;;;;;24.83;40.16;102325.69;5086757;28;20032;-73
2023/06/24 05:36:17;;;;;;;102.40;97.32;;;;;;;24.82;40.30;102329.56;5082144;28;20033;-73
2023/06/24 05:38:43;;;;;;;103.25;97.60;;;;;;;24.82;40.50;102337.88;5079631;28;20482;-74
2023/06/24 05:41:08;;;;;;;97.43;92.57;;;;;;;24.82;40.52;102329.56;5092964;28;20090;-73
2023/06/24 05:43:34;;;;;;;99.82;94.82;;;;;;;24.82;40.23;102328.72;5082753;28;20036;-73
2023/06/24 05:46:00;;;;;;;100.32;95.00;;;;;;;24.82;40.31;102324.06;5091306;28;20047;-73
2023/06/24 05:48:25;;;;;;;99.70;94.60;;;;;;;24.83;40.14;102333.16;5090116;28;20032;-73
2023/06/24 05:50:51;;;;;;;102.20;97.05;;;;;;;24.83;40.07;102331.22;5077528;28;20052;-74
2023/06/24 05:53:16;;;;;;;100.80;95.72;;;;;;;24.84;40.47;102338.38;5082147;28;20119;-74
2023/06/24 05:55:42;;;;;;;100.78;95.68;;;;;;;24.86;40.13;102328.97;5092465;28;20081;-77
2023/06/24 05:58:07;;;;;;;102.32;97.28;;;;;;;24.87;40.16;102327.84;5087360;28;20060;-73
2023/06/24 06:00:32;;;;;;;103.93;98.65;;;;;;;24.87;40.17;102327.84;5079256;28;20261;-75
2023/06/24 06:02:58;;;;;;;101.68;96.40;;;;;;;24.88;40.19;102335.84;5071650;28;20480;-75
2023/06/24 06:05:23;;;;;;;99.70;94.88;;;;;;;24.88;40.36;102332.25;5092217;28;20157;-74
2023/06/24 06:07:48;;;;;;;101.47;96.15;;;;;;;24.89;40.18;102343.00;5091233;28;20045;-74
2023/06/24 06:10:17;;;;;;;101.40;96.35;;;;;;;24.92;40.22;102344.34;5083576;28;20044;-75
2023/06/24 06:12:43;;;;;;;99.82;94.88;;;;;;;24.92;40.61;102336.88;5095996;28;20035;-75
2023/06/24 06:15:09;;;;;;;99.43;94.05;;;;;;;24.93;40.44;102344.03;5096286;28;20071;-74
2023/06/24 06:17:34;;;;;;;100.13;95.25;;;;;;;24.95;40.43;102344.56;5091255;28;20051;-75
2023/06/24 06:20:00;;;;;;;97.90;93.10;;;;;;;24.96;40.35;102337.91;5090047;28;20036;-75
2023/06/24 06:22:25;;;;;;;98.50;93.72;;;;;;;24.98;40.51;102343.16;5087056;28;20494;-74
2023/06/24 06:24:51;;;;;;;98.32;93.63;;;;;;;24.99;40.39;102347.53;5068183;28;20037;-75
2023/06/24 06:27:16;;;;;;;98.07;93.20;;;;;;;25.00;40.38;102351.97;5081394;28;20533;-86
2023/06/24 06:29:42;;;;;;;95.30;90.68;;;;;;;25.01;40.26;102351.66;5076764;28;20071;-74
2023/06/24 06:32:07;;;;;;;97.82;93.13;;;;;;;25.03;40.85;102356.88;5095254;28;20491;-75
2023/06/24 06:34:33;;;;;;;97.68;92.85;;;;;;;25.05;40.55;102354.66;5091229;28;20058;-75
2023/06/24 06:36:58;;;;;;;96.15;91.30;;;;;;;25.08;40.86;102358.75;5086740;28;20041;-74
2023/06/24 06:39:24;;;;;;;98.72;93.93;;;;;;;25.09;40.55;102355.66;5090726;28;20082;-79
2023/06/24 06:41:49;;;;;;;98.72;93.68;;;;;;;25.12;40.46;102355.06;5086796;28;20518;-74
2023/06/24 06:44:14;;;;;;;93.25;88.70;;;;;;;25.15;40.95;102356.38;5092206;28;20391;-75
2023/06/24 06:46:40;;;;;;;99.78;93.50;;;;;;;25.17;40.50;102357.75;5088103;28;20040;-73
2023/06/24 06:49:05;;;;;;;98.32;93.47;;;;;;;25.20;40.52;102353.56;5094014;28;20032;-74
2023/06/24 06:51:30;;;;;;;97.43;92.63;;;;;;;25.22;40.91;102352.16;5079801;28;20057;-74
2023/06/24 06:53:56;;;;;;;97.70;92.90;;;;;;;25.25;40.74;102361.81;5084711;28;20037;-74
2023/06/24 06:56:25;;;;;;;100.57;95.43;;;;;;;25.28;41.17;102363.97;5087101;28;20036;-74
2023/06/24 06:58:51;;;;;;;98.00;93.13;;;;;;;25.30;40.97;102360.88;5094921;28;20118;-74
2023/06/24 07:01:18;;;;;;;101.22;96.22;;;;;;;25.31;41.02;102357.81;5084585;28;20036;-74
2023/06/24 07:03:43;;;;;;;99.50;94.53;;;;;;;25.33;40.97;102368.59;5082953;28;20499;-74
2023/06/24 07:06:09;;;;;;;98.38;93.43;;;;;;;25.35;40.98;102363.53;5095248;28;20040;-74
2023/06/24 07:08:35;;;;;;;99.78;94.97;;;;;;;25.37;41.13;102361.31;5087861;28;20357;-74
2023/06/24 07:11:01;;;;;;;102.50;97.47;;;;;;;25.41;41.54;102368.69;5082395;28;20028;-75
2023/06/24 07:13:26;;;;;;;102.15;97.20;;;;;;;25.44;41.18;102367.25;5093574;28;20036;-73
2023/06/24 07:15:52;;;;;;;99.55;94.68;;;;;;;25.47;41.53;102366.66;5088439;28;20044;-74
2023/06/24 07:18:17;;;;;;;103.07;97.75;;;;;;;25.51;41.75;102366.88;5086652;28;20123;-74
2023/06/24 07:20:42;;;;;;;97.90;93.25;;;;;;;25.54;41.75;102367.06;5094411;28;20111;-74
2023/06/24 07:23:08;;;;;;;103.40;98.35;;;;;;;25.57;41.64;102373.94;5093463;28;20035;-73
2023/06/24 07:25:34;;;;;;;102.20;97.03;;;;;;;25.61;41.49;102369.44;5094509;28;20425;-75
2023/06/24 07:28:00;;;;;;;106.50;100.97;;;;;;;25.65;42.05;102370.47;5084576;28;20411;-76
2023/06/24 07:30:25;;;;;;;103.90;98.85;;;;;;;25.69;41.74;102374.28;5086419;28;20483;-73
2023/06/24 07:32:50;;;;;;;104.30;99.20;;;;;;;25.73;42.00;102372.53;5094142;28;20039;-74
2023/06/24 07:35:16;;;;;;;106.80;101.57;;;;;;;25.78;41.56;102369.69;5094350;28;20090;-75
2023/06/24 07:37:41;;;;;;;106.88;101.50;;;;;;;25.82;41.99;102378.16;5078549;28;20094;-74
2023/06/24 07:40:08;;;;;;;104.38;99.18;;;;;;;25.86;41.94;102374.53;5074195;28;20071;-77
2023/06/24 07:42:33;;;;;;;109.00;103.55;;;;;;;25.90;41.98;102370.03;5090908;28;20036;-74
2023/06/24 07:44:59;;;;;;;114.38;108.57;;;;;;;25.96;41.72;102372.69;5085989;28;20032;-74
2023/06/24 07:47:24;;;;;;;104.60;99.45;;;;;;;26.01;41.94;102369.81;5088868;28;20089;-80
2023/06/24 07:49:50;;;;;;;108.55;102.75;;;;;;;26.05;41.90;102366.09;5092815;28;20036;-74
2023/06/24 07:52:15;;;;;;;110.38;104.80;;;;;;;26.10;42.13;102368.75;5090273;28;20040;-72
2023/06/24 07:54:41;;;;;;;114.03;107.47;;;;;;;26.17;42.03;102375.84;5074647;28;20028;-76
2023/06/24 07:57:06;;;;;;;109.82;104.22;;;;;;;26.22;41.70;102365.47;5093760;28;20036;-73
2023/06/24 07:59:32;;;;;;;109.00;103.70;;;;;;;26.28;41.86;102369.78;5090399;28;20028;-74
2023/06/24 08:01:57;;;;;;;109.85;104.55;;;;;;;26.33;41.94;102375.22;5090311;28;20032;-74
2023/06/24 08:04:23;;;;;;;107.80;102.38;;;;;;;26.41;42.13;102370.03;5091970;28;20032;-71
2023/06/24 08:06:48;;;;;;;109.60;104.30;;;;;;;26.46;41.89;102367.16;5088810;28;20047;-72
2023/06/24 08:09:16;;;;;;;109.43;104.13;;;;;;;26.52;41.71;102365.94;5076974;28;20040;-73
2023/06/24 08:11:41;;;;;;;110.72;105.47;;;;;;;26.57;41.75;102367.78;5091084;28;20028;-71
2023/06/24 08:14:07;;;;;;;112.65;107.15;;;;;;;26.62;41.88;102368.50;5085748;28;20035;-72
2023/06/24 08:16:32;;;;;;;113.53;108.00;;;;;;;26.68;41.91;102367.22;5092120;28;20036;-73
2023/06/24 08:18:58;;;;;;;112.43;106.82;;;;;;;26.74;41.79;102363.22;5092519;28;20032;-76
2023/06/24 08:21:23;;;;;;;114.00;108.43;;;;;;;26.83;41.51;102365.22;5089766;28;20043;-71
2023/06/24 08:23:50;;;;;;;111.30;106.10;;;;;;;26.88;41.41;102363.16;5088948;28;20032;-71
2023/06/24 08:26:16;;;;;;;118.30;112.63;;;;;;;26.95;41.55;102365.50;5075059;28;20468;-72
2023/06/24 08:28:41;;;;;;;113.53;108.13;;;;;;;27.01;41.70;102364.22;5084473;28;20078;-71
2023/06/24 08:31:06;;;;;;;112.93;107.53;;;;;;;27.08;41.31;102366.56;5087875;28;20035;-71
2023/06/24 08:33:32;;;;;;;112.72;107.43;;;;;;;27.14;41.58;102359.72;5078305;28;20073;-72
2023/06/24 08:35:57;;;;;;;115.30;109.80;;;;;;;27.21;41.38;102353.78;5089484;28;20036;-73
2023/06/24 08:38:23;;;;;;;113.13;107.85;;;;;;;27.28;41.25;102346.66;5092638;28;20093;-73
2023/06/24 08:40:49;;;;;;;112.93;107.53;;;;;;;27.34;41.25;102350.94;5086684;28;20406;-74
2023/06/24 08:43:15;;;;;;;118.72;113.15;;;;;;;27.41;41.42;102354.06;5091252;28;20036;-71
2023/06/24 08:45:40;;;;;;;114.93;109.43;;;;;;;27.48;41.41;102350.84;5089689;28;20448;-75
2023/06/24 08:48:06;;;;;;;117.25;111.53;;;;;;;27.55;41.41;102350.38;5076471;28;20074;-72
2023/06/24 08:50:37;;;;;;;117.93;111.35;;;;;;;27.63;41.01;102346.81;5074794;28;20466;-66
2023/06/24 08:53:09;;;;;;;126.93;120.43;;;;;;;27.71;40.81;102350.78;5072522;28;20542;-73
2023/06/24 08:55:42;;;;;;;121.25;115.43;;;;;;;27.80;40.34;102346.88;5077138;28;20480;-70
2023/06/24 08:58:08;;;;;;;118.03;112.43;;;;;;;27.89;40.40;102344.16;5084666;28;20039;-71
2023/06/24 09:00:34;;;;;;;117.53;111.63;;;;;;;27.96;39.74;102340.91;5090405;28;20031;-70
2023/06/24 09:03:00;;;;;;;125.28;116.68;;;;;;;28.04;39.82;102340.91;5090832;28;20467;-73
2023/06/24 09:05:25;;;;;;;120.75;113.70;;;;;;;28.12;39.78;102344.88;5084073;28;20076;-71
2023/06/24 09:07:50;;;;;;;124.60;118.90;;;;;;;28.20;39.43;102338.53;5086832;28;20108;-74
2023/06/24 09:10:32;;;;;;;117.82;112.00;;;;;;;28.30;38.60;102339.34;5092069;28;20390;-70
2023/06/24 09:13:00;;;;;;;118.90;113.10;;;;;;;28.37;38.66;102340.47;5091767;28;20064;-68
2023/06/24 09:15:29;;;;;;;122.83;116.97;;;;;;;28.45;38.73;102333.31;5090518;28;20035;-68
2023/06/24 09:17:55;;;;;;;127.63;121.75;;;;;;;28.50;38.43;102341.53;5086466;28;20129;-69
2023/06/24 09:20:22;;;;;;;122.65;116.93;;;;;;;28.56;38.33;102331.06;5072304;28;20536;-66
2023/06/24 09:22:48;;;;;;;129.97;123.20;;;;;;;28.63;38.12;102331.41;5071651;28;20487;-66
2023/06/24 09:25:18;;;;;;;122.63;116.93;;;;;;;28.68;38.19;102325.66;5081370;28;20029;-66
2023/06/24 09:27:51;;;;;;;125.88;119.97;;;;;;;28.76;37.52;102324.03;5090593;28;20483;-66
2023/06/24 09:30:21;;;;;;;126.28;119.78;;;;;;;28.82;37.53;102337.41;5076248;28;20349;-66
2023/06/24 09:32:48;;;;;;;124.47;118.68;;;;;;;28.88;37.57;102330.53;5071339;28;20028;-66
2023/06/24 09:35:14;;;;;;;129.35;122.55;;;;;;;28.96;37.06;102311.41;5080571;28;20028;-66
2023/06/24 09:37:39;;;;;;;132.40;126.38;;;;;;;29.03;37.04;102317.25;5076277;28;20028;-72
2023/06/24 09:40:06;;;;;;;131.10;125.10;;;;;;;29.10;37.44;102315.63;5071818;28;20501;-67
2023/06/24 09:42:32;;;;;;;126.82;121.18;;;;;;;29.17;37.26;102317.09;5071231;28;20472;-67
2023/06/24 09:44:57;;;;;;;129.68;123.78;;;;;;;29.23;36.75;102315.75;5079205;28;20036;-66
2023/06/24 09:47:27;;;;;;;128.43;122.07;;;;;;;29.28;36.47;102319.19;5089426;28;20027;-72
2023/06/24 09:49:53;;;;;;;128.57;122.75;;;;;;;29.34;36.22;102312.28;5078018;28;20059;-71
2023/06/24 09:52:22;;;;;;;129.35;123.47;;;;;;;29.39;35.93;102310.47;5086488;28;20393;-71
2023/06/24 09:54:51;;;;;;;138.27;129.48;;;;;;;29.43;35.67;102306.66;5072001;28;20054;-71
2023/06/24 09:57:23;;;;;;;133.30;127.00;;;;;;;29.47;35.67;102310.44;5076274;28;20039;-71
2023/06/24 09:59:49;;;;;;;131.73;124.00;;;;;;;29.52;35.67;102307.44;5071544;28;20063;-72
2023/06/24 10:02:16;;;;;;;127.22;121.20;;;;;;;29.58;35.38;102313.66;5071796;28;20032;-71
2023/06/24 10:04:41;;;;;;;126.63;121.07;;;;;;;29.65;35.05;102313.97;5075602;28;20043;-72
2023/06/24 10:07:07;;;;;;;133.10;127.13;;;;;;;29.69;34.63;102314.94;5088757;28;20048;-70
2023/06/24 10:09:33;;;;;;;132.35;126.40;;;;;;;29.75;34.53;102316.38;5071641;28;20111;-71
2023/06/24 10:11:58;;;;;;;137.23;131.18;;;;;;;29.81;34.20;102308.66;5071167;28;20398;-73
2023/06/24 10:14:24;;;;;;;132.95;126.63;;;;;;;29.89;34.02;102301.41;5090270;28;20039;-71
2023/06/24 10:16:50;;;;;;;134.82;128.70;;;;;;;29.95;33.94;102300.03;5068926;28;20047;-72
2023/06/24 10:19:23;;;;;;;134.00;128.15;;;;;;;30.01;34.28;102304.25;5072090;28;20461;-77
2023/06/24 10:21:52;;;;;;;135.88;129.77;;;;;;;30.08;33.74;102309.31;5080591;28;20529;-71
2023/06/24 10:24:30;;;;;;;134.30;128.40;;;;;;;30.15;33.00;102304.81;5086226;28;20151;-68
2023/06/24 10:27:00;;;;;;;;;;;;;;;30.19;33.37;102308.56;5090900;28;20043;-78
2023/06/24 10:29:38;;;;;;;132.68;126.93;;;;;;;30.25;33.41;102300.03;5079826;28;19916;-71
2023/06/24 10:32:04;;;;;;;;;;;;;;;30.30;33.54;102297.84;5071520;28;20035;-72
2023/06/24 10:34:32;;;;;;;131.98;126.35;;;;;;;30.40;33.49;102297.44;5075854;28;20371;-74
2023/06/24 10:37:07;;;;;;;137.98;132.00;;;;;;;30.51;33.20;102289.47;5087136;28;20036;-72
2023/06/24 10:39:57;;;;;;;141.25;135.23;;;;;;;30.64;33.01;102293.13;5089556;28;20433;-73
2023/06/24 10:42:48;;;;;;;137.00;131.05;;;;;;;30.77;33.89;102293.97;5083078;28;20043;-73
2023/06/24 10:45:15;;;;;;;137.15;131.23;;;;;;;30.90;33.61;102300.47;5089075;28;20082;-74
2023/06/24 10:47:48;;;;;;;137.07;131.13;;;;;;;31.02;33.32;102287.34;5083737;28;20487;-72
2023/06/24 10:50:16;;;;;;;140.02;133.85;;;;;;;31.15;33.21;102290.97;5078706;28;20062;-72
2023/06/24 10:52:47;;;;;;;143.15;136.85;;;;;;;31.27;33.89;102287.38;5082232;28;20051;-72
2023/06/24 10:55:17;;;;;;;151.80;145.27;;;;;;;31.38;33.54;102288.59;5091989;28;20036;-70
2023/06/24 10:57:43;;;;;;;148.95;142.50;;;;;;;31.51;33.26;102286.59;5074821;28;20082;-84
2023/06/24 11:00:09;;;;;;;148.90;141.90;;;;;;;31.59;33.17;102279.28;5079450;28;20439;-73